createdAt,value
2022-11-15T00:01:21.363Z,442.13
2022-11-15T00:04:10.074Z,446.20
2022-11-15T00:06:56.792Z,443.83
2022-11-15T00:09:46.217Z,447.13
2022-11-15T00:12:32.834Z,445.17
2022-11-15T00:15:19.779Z,437.63
2022-11-15T00:18:09.039Z,431.45
2022-11-15T00:20:57.587Z,429.77
2022-11-15T00:23:46.642Z,442.75
2022-11-15T00:26:37.096Z,441.90
2022-11-15T00:29:25.225Z,432.55
2022-11-15T00:32:13.166Z,420.55
2022-11-15T00:35:00.960Z,438.58
2022-11-15T00:37:51.538Z,442.33
2022-11-15T00:40:39.405Z,447.85
2022-11-15T00:43:29.303Z,426.85
2022-11-15T00:46:17.123Z,382.27
2022-11-15T00:49:04.190Z,375.92
2022-11-15T00:51:52.351Z,427.20
2022-11-15T00:54:41.220Z,449.02
2022-11-15T00:57:30.182Z,453.95
2022-11-15T01:00:19.076Z,448.17
2022-11-15T01:03:08.514Z,446.17
2022-11-15T01:06:01.926Z,448.60
2022-11-15T01:08:50.290Z,412.98
2022-11-15T01:11:38.646Z,409.98
2022-11-15T01:14:25.875Z,426.13
2022-11-15T01:17:14.495Z,418.65
2022-11-15T01:20:01.259Z,424.70
2022-11-15T01:22:48.898Z,428.15
2022-11-15T01:25:35.384Z,452.50
2022-11-15T01:28:23.318Z,446.95
2022-11-15T01:31:17.599Z,444.88
2022-11-15T01:34:06.790Z,450.35
2022-11-15T01:36:55.803Z,447.83
2022-11-15T01:39:42.256Z,451.38
2022-11-15T01:42:29.995Z,436.95
2022-11-15T01:45:19.493Z,421.98
2022-11-15T01:48:10.395Z,399.75
2022-11-15T01:51:01.298Z,439.45
2022-11-15T01:53:55.388Z,441.08
2022-11-15T01:56:51.127Z,447.73
2022-11-15T01:59:42.384Z,440.13
2022-11-15T02:02:30.702Z,447.50
2022-11-15T02:05:17.818Z,450.80
2022-11-15T02:08:08.514Z,445.83
2022-11-15T02:10:55.102Z,454.30
2022-11-15T02:13:44.389Z,446.52
2022-11-15T02:16:45.477Z,448.90
2022-11-15T02:22:57.745Z,442.00
2022-11-15T02:26:00.366Z,423.25
2022-11-15T02:29:04.462Z,402.65
2022-11-15T02:32:02.669Z,393.35
2022-11-15T02:34:58.498Z,444.70
2022-11-15T02:37:55.180Z,420.20
2022-11-15T02:40:49.327Z,402.73
2022-11-15T02:44:01.161Z,402.45
2022-11-15T02:47:08.974Z,399.65
2022-11-15T02:50:03.807Z,410.75
2022-11-15T02:52:52.875Z,428.52
2022-11-15T02:55:45.544Z,423.67
2022-11-15T02:59:27.167Z,399.60
2022-11-15T03:05:36.878Z,403.13
2022-11-15T03:08:33.986Z,416.35
2022-11-15T03:11:25.180Z,437.15
2022-11-15T03:14:27.675Z,440.08
2022-11-15T03:17:25.366Z,446.35
2022-11-15T03:20:16.284Z,450.20
2022-11-15T03:23:10.225Z,445.75
2022-11-15T03:26:00.341Z,452.85
2022-11-15T03:28:53.100Z,442.48
2022-11-15T03:31:50.731Z,452.90
2022-11-15T03:34:44.149Z,453.80
2022-11-15T03:37:39.649Z,438.80
2022-11-15T03:40:37.338Z,440.25
2022-11-15T03:43:37.251Z,658.83
2022-11-15T03:46:30.581Z,659.03
2022-11-15T03:49:23.947Z,527.40
2022-11-15T03:52:14.620Z,506.88
2022-11-15T03:55:06.025Z,1137.15
2022-11-15T03:58:00.498Z,1152.60
2022-11-15T04:00:48.692Z,1155.07
2022-11-15T04:03:36.595Z,1013.00
2022-11-15T04:06:23.691Z,1162.25
2022-11-15T04:09:11.561Z,1131.07
2022-11-15T04:11:59.965Z,1107.50
2022-11-15T04:15:07.979Z,730.75
2022-11-15T04:18:00.956Z,845.95
2022-11-15T04:21:05.358Z,1036.88
2022-11-15T04:24:12.128Z,1045.57
2022-11-15T04:27:00.763Z,1100.53
2022-11-15T04:29:50.209Z,779.85
2022-11-15T04:32:38.256Z,1061.70
2022-11-15T04:35:24.806Z,508.50
2022-11-15T04:38:13.687Z,481.67
2022-11-15T04:41:02.317Z,878.22
2022-11-15T04:43:50.730Z,457.20
2022-11-15T04:46:40.252Z,448.77
2022-11-15T04:49:27.434Z,446.85
2022-11-15T04:52:15.675Z,448.27
2022-11-15T04:55:07.986Z,449.55
2022-11-15T04:58:03.615Z,449.38
2022-11-15T05:00:51.996Z,482.42
2022-11-15T05:04:00.441Z,487.77
2022-11-15T05:06:47.984Z,495.92
2022-11-15T05:09:36.563Z,492.35
2022-11-15T05:12:25.946Z,434.60
2022-11-15T05:15:14.325Z,435.17
2022-11-15T05:18:02.983Z,438.27
2022-11-15T05:20:52.192Z,460.67
2022-11-15T05:23:40.540Z,440.10
2022-11-15T05:26:30.254Z,439.50
2022-11-15T05:29:18.537Z,434.55
2022-11-15T05:32:09.841Z,430.85
2022-11-15T05:34:58.343Z,448.58
2022-11-15T05:37:47.853Z,428.15
2022-11-15T05:40:37.508Z,416.45
2022-11-15T05:43:25.894Z,417.60
2022-11-15T05:46:15.813Z,460.13
2022-11-15T05:49:02.996Z,490.70
2022-11-15T05:51:52.137Z,476.95
2022-11-15T05:54:41.831Z,464.08
2022-11-15T05:57:30.931Z,454.00
2022-11-15T06:00:20.236Z,579.70
2022-11-15T06:03:08.570Z,557.83
2022-11-15T06:05:55.033Z,1095.38
2022-11-15T06:08:45.563Z,672.17
2022-11-15T06:11:34.865Z,445.75
2022-11-15T06:14:23.131Z,486.88
2022-11-15T06:17:11.597Z,491.27
2022-11-15T06:19:58.228Z,486.80
2022-11-15T06:22:45.516Z,610.42
2022-11-15T06:25:34.249Z,432.90
2022-11-15T06:28:23.887Z,435.48
2022-11-15T06:31:12.920Z,532.97
2022-11-15T06:34:02.648Z,488.95
2022-11-15T06:36:52.288Z,453.45
2022-11-15T06:39:40.789Z,447.02
2022-11-15T06:42:29.265Z,435.48
2022-11-15T06:45:18.054Z,418.58
2022-11-15T06:48:05.459Z,430.92
2022-11-15T06:50:54.245Z,436.92
2022-11-15T06:53:42.281Z,429.55
2022-11-15T06:56:29.230Z,434.75
2022-11-15T06:59:17.265Z,421.25
2022-11-15T07:02:08.843Z,454.58
2022-11-15T07:04:56.487Z,440.63
2022-11-15T07:07:49.359Z,445.27
2022-11-15T07:10:35.823Z,437.70
2022-11-15T07:13:27.617Z,455.73
2022-11-15T07:16:16.413Z,450.30
2022-11-15T07:19:07.520Z,446.83
2022-11-15T07:21:56.616Z,458.27
2022-11-15T07:24:45.151Z,447.95
2022-11-15T07:27:35.036Z,450.50
2022-11-15T07:30:22.801Z,445.88
2022-11-15T07:33:09.701Z,623.25
2022-11-15T07:36:02.507Z,433.52
2022-11-15T07:38:49.541Z,438.90
2022-11-15T07:41:36.118Z,458.27
2022-11-15T07:44:24.142Z,466.30
2022-11-15T07:47:12.239Z,475.60
2022-11-15T07:49:58.737Z,509.05
2022-11-15T07:52:47.931Z,510.08
2022-11-15T07:55:36.113Z,493.75
2022-11-15T07:58:24.393Z,489.65
2022-11-15T08:01:15.803Z,506.77
2022-11-15T08:04:02.798Z,696.95
2022-11-15T08:06:50.785Z,461.15
2022-11-15T08:09:41.569Z,480.35
2022-11-15T08:12:30.651Z,468.52
2022-11-15T08:15:19.994Z,480.63
2022-11-15T08:18:12.679Z,485.45
2022-11-15T08:21:04.812Z,491.92
2022-11-15T08:23:51.877Z,493.90
2022-11-15T08:26:41.159Z,499.80
2022-11-15T08:29:30.763Z,507.85
2022-11-15T08:32:19.080Z,482.23
2022-11-15T08:35:09.487Z,476.77
2022-11-15T08:37:58.454Z,497.55
2022-11-15T08:40:48.402Z,496.17
2022-11-15T08:43:37.675Z,502.20
2022-11-15T08:46:25.988Z,495.98
2022-11-15T08:49:14.475Z,483.13
2022-11-15T08:52:04.892Z,527.17
2022-11-15T08:54:52.230Z,471.00
2022-11-15T08:57:38.876Z,482.45
2022-11-15T09:00:28.647Z,414.35
2022-11-15T09:03:17.388Z,400.33
2022-11-15T09:06:05.117Z,472.20
2022-11-15T09:08:52.296Z,485.88
2022-11-15T09:11:41.941Z,465.20
2022-11-15T09:14:29.957Z,437.95
2022-11-15T09:17:24.375Z,449.75
2022-11-15T09:20:14.598Z,440.70
2022-11-15T09:23:02.904Z,441.58
2022-11-15T09:25:52.807Z,446.52
2022-11-15T09:28:42.687Z,395.92
2022-11-15T09:31:30.338Z,438.08
2022-11-15T09:34:18.596Z,432.52
2022-11-15T09:37:08.279Z,430.05
2022-11-15T09:39:55.051Z,415.58
2022-11-15T09:43:26.757Z,383.80
2022-11-15T09:46:22.829Z,383.58
2022-11-15T09:49:13.864Z,351.95
2022-11-15T09:52:00.234Z,330.98
2022-11-15T09:57:26.782Z,315.90
2022-11-15T10:05:42.690Z,301.38
2022-11-15T10:08:31.804Z,309.80
2022-11-15T10:11:35.646Z,281.05
2022-11-15T10:13:59.770Z,278.75
2022-11-15T10:16:45.316Z,302.83
2022-11-15T10:19:25.713Z,325.95
2022-11-15T10:22:14.773Z,298.75
2022-11-15T10:24:48.908Z,311.55
2022-11-15T10:27:22.400Z,322.98
2022-11-15T10:29:52.415Z,309.55
2022-11-15T10:32:22.940Z,291.77
2022-11-15T10:34:52.150Z,310.52
2022-11-15T10:37:32.663Z,309.10
2022-11-15T10:40:17.928Z,304.00
2022-11-15T10:42:46.390Z,299.38
2022-11-15T10:45:32.971Z,307.25
2022-11-15T10:48:24.402Z,329.92
2022-11-15T10:50:56.983Z,321.25
2022-11-15T10:53:32.816Z,319.58
2022-11-15T10:56:10.355Z,304.70
2022-11-15T10:58:43.301Z,309.35
2022-11-15T11:01:17.345Z,310.05
2022-11-15T11:04:01.040Z,301.48
2022-11-15T11:06:32.049Z,303.88
2022-11-15T11:09:02.186Z,315.02
2022-11-15T11:11:50.337Z,301.80
2022-11-15T11:14:24.109Z,294.42
2022-11-15T11:16:57.596Z,307.92
2022-11-15T11:19:51.841Z,313.52
2022-11-15T11:22:29.820Z,297.75
2022-11-15T11:25:24.186Z,343.23
2022-11-15T11:28:14.836Z,336.35
2022-11-15T11:30:55.527Z,328.98
2022-11-15T11:33:32.405Z,326.75
2022-11-15T11:36:14.837Z,315.27
2022-11-15T11:39:00.028Z,318.42
2022-11-15T11:41:51.482Z,313.48
2022-11-15T11:44:45.229Z,318.60
2022-11-15T11:47:22.642Z,315.75
2022-11-15T11:49:57.065Z,306.65
2022-11-15T11:52:31.824Z,307.17
2022-11-15T11:55:15.568Z,303.35
2022-11-15T11:57:54.539Z,294.00
2022-11-15T12:00:28.217Z,276.95
2022-11-15T12:03:13.652Z,308.60
2022-11-15T12:05:45.385Z,311.10
2022-11-15T12:08:30.270Z,316.13
2022-11-15T12:11:05.826Z,313.98
2022-11-15T12:13:37.894Z,294.23
2022-11-15T12:16:25.179Z,276.88
2022-11-15T12:18:58.760Z,305.70
2022-11-15T12:21:41.732Z,299.90
2022-11-15T12:24:17.514Z,299.90
2022-11-15T12:26:54.874Z,333.27
2022-11-15T12:29:29.940Z,328.08
2022-11-15T12:32:03.133Z,326.15
2022-11-15T12:34:47.310Z,867.10
2022-11-15T12:37:51.300Z,447.98
2022-11-15T12:40:25.302Z,461.15
2022-11-15T12:43:32.741Z,446.95
2022-11-15T12:46:08.212Z,359.10
2022-11-15T12:48:54.660Z,347.73
2022-11-15T12:52:06.852Z,357.08
2022-11-15T12:55:01.315Z,338.85
2022-11-15T12:57:41.612Z,360.02
2022-11-15T13:00:40.049Z,352.90
2022-11-15T13:03:31.899Z,358.75
2022-11-15T13:06:40.069Z,388.08
2022-11-15T13:09:43.266Z,402.30
2022-11-15T13:12:36.515Z,437.65
2022-11-15T13:15:48.765Z,371.33
2022-11-15T13:18:40.870Z,384.50
2022-11-15T13:21:43.335Z,425.17
2022-11-15T13:24:17.838Z,338.00
2022-11-15T13:26:48.124Z,339.75
2022-11-15T13:29:19.796Z,326.95
2022-11-15T13:31:55.161Z,358.17
2022-11-15T13:37:34.963Z,379.63
2022-11-15T13:42:52.404Z,389.88
2022-11-15T13:45:22.835Z,434.33
2022-11-15T13:47:57.375Z,387.17
2022-11-15T13:50:33.160Z,386.88
2022-11-15T13:53:07.987Z,375.95
2022-11-15T13:55:36.778Z,446.25
2022-11-15T13:58:08.930Z,347.63
2022-11-15T14:00:43.096Z,327.27
2022-11-15T14:03:24.696Z,290.20
2022-11-15T14:06:09.240Z,326.90
2022-11-15T14:08:38.080Z,326.67
2022-11-15T14:11:20.615Z,298.95
2022-11-15T14:14:14.608Z,285.98
2022-11-15T14:16:45.858Z,313.08
2022-11-15T14:19:38.321Z,444.45
2022-11-15T14:22:22.476Z,422.38
2022-11-15T14:25:18.735Z,396.67
2022-11-15T14:28:18.395Z,293.63
2022-11-15T14:30:51.186Z,254.70
2022-11-15T14:33:24.916Z,255.48
2022-11-15T14:35:56.971Z,246.75
2022-11-15T14:38:25.707Z,239.45
2022-11-15T14:40:56.701Z,281.23
2022-11-15T14:43:26.301Z,263.70
2022-11-15T14:45:55.857Z,259.77
2022-11-15T14:48:26.294Z,255.32
2022-11-15T14:50:56.218Z,254.65
2022-11-15T14:53:24.435Z,267.77
2022-11-15T14:55:55.011Z,267.00
2022-11-15T14:58:24.741Z,263.63
2022-11-15T15:00:52.911Z,259.65
2022-11-15T15:03:22.266Z,253.90
2022-11-15T15:05:52.059Z,247.57
2022-11-15T15:08:21.841Z,234.00
2022-11-15T15:10:51.419Z,232.13
2022-11-15T15:13:22.818Z,240.38
2022-11-15T15:15:52.919Z,235.40
2022-11-15T15:18:23.822Z,252.00
2022-11-15T15:21:00.748Z,252.38
2022-11-15T15:23:33.898Z,237.38
2022-11-15T15:26:03.546Z,245.65
2022-11-15T15:28:35.000Z,243.68
2022-11-15T15:31:04.815Z,249.27
2022-11-15T15:33:34.565Z,253.32
2022-11-15T15:36:03.186Z,263.67
2022-11-15T15:38:34.319Z,264.42
2022-11-15T15:41:04.740Z,271.20
2022-11-15T15:43:34.070Z,267.98
2022-11-15T15:46:02.550Z,263.80
2022-11-15T15:48:32.342Z,263.38
2022-11-15T15:51:04.461Z,256.80
2022-11-15T15:53:38.809Z,252.63
2022-11-15T15:56:08.933Z,248.75
2022-11-15T15:58:38.590Z,246.73
2022-11-15T16:01:07.462Z,243.57
2022-11-15T16:03:36.034Z,258.48
2022-11-15T16:06:06.214Z,270.67
2022-11-15T16:08:53.483Z,267.15
2022-11-15T16:11:26.799Z,240.60
2022-11-15T16:13:57.698Z,233.98
2022-11-15T16:16:26.186Z,244.30
2022-11-15T16:18:56.616Z,244.30
2022-11-15T16:21:24.869Z,247.00
2022-11-15T16:23:53.523Z,257.20
2022-11-15T16:26:26.227Z,275.73
2022-11-15T16:28:58.648Z,271.05
2022-11-15T16:31:28.533Z,273.45
2022-11-15T16:33:58.475Z,287.65
2022-11-15T16:36:31.236Z,278.17
2022-11-15T16:39:01.711Z,276.30
2022-11-15T16:41:31.133Z,277.50
2022-11-15T16:44:00.602Z,288.27
2022-11-15T16:46:29.987Z,276.42
2022-11-15T16:48:59.773Z,279.67
2022-11-15T16:51:27.860Z,283.33
2022-11-15T16:53:58.723Z,278.15
2022-11-15T16:56:30.695Z,279.58
2022-11-15T17:01:35.369Z,271.85
2022-11-15T17:04:12.643Z,270.83
2022-11-15T17:06:41.948Z,270.35
2022-11-15T17:09:13.701Z,271.80
2022-11-15T17:11:43.380Z,283.95
2022-11-15T17:14:14.168Z,282.42
2022-11-15T17:19:16.086Z,271.33
2022-11-15T17:21:44.773Z,254.40
2022-11-15T17:24:14.112Z,252.30
2022-11-15T17:26:43.959Z,262.13
2022-11-15T17:29:13.966Z,260.98
2022-11-15T17:31:42.104Z,253.93
2022-11-15T17:34:12.023Z,275.95
2022-11-15T17:36:40.514Z,261.35
2022-11-15T17:39:11.106Z,253.23
2022-11-15T17:41:40.818Z,259.58
2022-11-15T17:44:09.337Z,248.43
2022-11-15T17:46:40.851Z,253.75
2022-11-15T17:49:12.208Z,251.32
2022-11-15T17:51:40.359Z,241.27
2022-11-15T17:54:13.868Z,247.55
2022-11-15T17:56:42.727Z,240.75
2022-11-15T17:59:18.586Z,249.05
2022-11-15T18:01:53.810Z,245.68
2022-11-15T18:04:29.239Z,274.50
2022-11-15T18:06:57.404Z,277.85
2022-11-15T18:09:28.062Z,272.92
2022-11-15T18:11:58.567Z,276.13
2022-11-15T18:14:28.317Z,275.52
2022-11-15T18:16:58.979Z,268.05
2022-11-15T18:19:28.409Z,255.10
2022-11-15T18:21:58.904Z,241.65
2022-11-15T18:24:30.719Z,245.55
2022-11-15T18:27:00.126Z,244.98
2022-11-15T18:29:34.481Z,245.05
2022-11-15T18:32:11.519Z,247.23
2022-11-15T18:34:42.274Z,245.35
2022-11-15T18:37:11.640Z,245.40
2022-11-15T18:39:40.256Z,243.98
2022-11-15T18:42:09.616Z,243.75
2022-11-15T18:44:38.164Z,243.30
2022-11-15T18:47:08.871Z,243.40
2022-11-15T18:49:38.181Z,243.82
2022-11-15T18:52:08.386Z,244.75
2022-11-15T18:54:39.152Z,244.70
2022-11-15T18:57:07.672Z,246.98
2022-11-15T18:59:35.832Z,244.93
2022-11-15T19:02:04.031Z,249.65
2022-11-15T19:04:36.075Z,242.80
2022-11-15T19:07:06.154Z,242.80
2022-11-15T19:09:36.311Z,240.80
2022-11-15T19:12:06.377Z,243.70
2022-11-15T19:14:34.885Z,248.45
2022-11-15T19:17:03.301Z,256.70
2022-11-15T19:19:34.357Z,257.02
2022-11-15T19:22:03.691Z,272.83
2022-11-15T19:24:33.642Z,284.83
2022-11-15T19:27:03.239Z,280.85
2022-11-15T19:29:32.918Z,256.10
2022-11-15T19:32:02.105Z,273.88
2022-11-15T19:34:30.282Z,283.27
2022-11-15T19:36:59.780Z,286.08
2022-11-15T19:39:27.939Z,270.13
2022-11-15T19:41:56.097Z,284.92
2022-11-15T19:44:28.530Z,271.60
2022-11-15T19:46:57.830Z,294.80
2022-11-15T19:49:28.594Z,287.65
2022-11-15T19:51:56.917Z,298.95
2022-11-15T19:54:27.714Z,296.58
2022-11-15T19:56:57.077Z,297.98
2022-11-15T19:59:27.645Z,299.35
2022-11-15T20:01:55.759Z,297.65
2022-11-15T20:04:24.449Z,301.58
2022-11-15T20:06:53.019Z,299.17
2022-11-15T20:09:22.496Z,289.15
2022-11-15T20:11:52.034Z,264.48
2022-11-15T20:14:22.644Z,263.45
2022-11-15T20:16:54.467Z,265.20
2022-11-15T20:19:22.915Z,255.75
2022-11-15T20:21:52.292Z,272.52
2022-11-15T20:24:22.733Z,253.35
2022-11-15T20:26:53.467Z,250.00
2022-11-15T20:29:23.323Z,243.98
2022-11-15T20:31:52.617Z,244.97
2022-11-15T20:34:20.972Z,239.82
2022-11-15T20:36:49.472Z,244.77
2022-11-15T20:39:20.261Z,234.45
2022-11-15T20:41:49.651Z,240.57
2022-11-15T20:44:20.366Z,237.48
2022-11-15T20:49:20.170Z,249.05
2022-11-15T20:51:48.499Z,233.20
2022-11-15T20:54:20.469Z,230.43
2022-11-15T20:56:48.555Z,221.00
2022-11-15T20:59:20.706Z,218.65
2022-11-15T21:01:50.728Z,222.02
2022-11-15T21:04:19.307Z,217.40
2022-11-15T21:06:50.657Z,218.07
2022-11-15T21:09:37.678Z,215.65
2022-11-15T21:12:15.973Z,218.82
2022-11-15T21:14:50.093Z,217.98
2022-11-15T21:17:19.825Z,211.20
2022-11-15T21:19:50.482Z,209.20
2022-11-15T21:22:18.940Z,210.30
2022-11-15T21:24:49.516Z,212.85
2022-11-15T21:27:19.231Z,219.82
2022-11-15T21:29:51.464Z,212.85
2022-11-15T21:32:21.752Z,213.35
2022-11-15T21:34:51.466Z,219.20
2022-11-15T21:37:19.627Z,229.73
2022-11-15T21:39:49.028Z,220.55
2022-11-15T21:42:18.623Z,195.35
2022-11-15T21:44:48.379Z,191.43
2022-11-15T21:47:19.206Z,207.90
2022-11-15T21:49:50.248Z,228.18
2022-11-15T21:52:18.829Z,250.93
2022-11-15T21:54:48.420Z,250.38
2022-11-15T21:57:18.892Z,221.77
2022-11-15T22:00:06.053Z,220.65
2022-11-15T22:02:36.801Z,212.35
2022-11-15T22:05:06.776Z,212.82
2022-11-15T22:07:36.304Z,208.70
2022-11-15T22:10:05.416Z,213.02
2022-11-15T22:12:33.582Z,219.40
2022-11-15T22:15:03.603Z,212.07
2022-11-15T22:17:46.873Z,225.38
2022-11-15T22:23:08.914Z,208.85
2022-11-15T22:25:38.511Z,208.15
2022-11-15T22:28:06.903Z,201.68
2022-11-15T22:30:36.190Z,211.77
2022-11-15T22:33:06.014Z,217.55
2022-11-15T22:35:38.720Z,215.23
2022-11-15T22:38:09.252Z,217.27
2022-11-15T22:40:41.678Z,220.73
2022-11-15T22:43:12.857Z,227.18
2022-11-15T22:45:53.059Z,238.75
2022-11-15T22:48:22.237Z,218.50
2022-11-15T22:50:52.211Z,230.13
2022-11-15T22:53:22.485Z,234.50
2022-11-15T22:55:54.860Z,245.82
2022-11-15T22:58:26.489Z,244.52
2022-11-15T23:00:57.126Z,249.82
2022-11-15T23:03:28.383Z,249.43
2022-11-15T23:06:03.060Z,242.90
2022-11-15T23:08:32.786Z,220.73
2022-11-15T23:11:20.710Z,212.25
2022-11-15T23:13:53.894Z,218.85
2022-11-15T23:16:35.161Z,217.02
2022-11-15T23:19:07.858Z,215.18
2022-11-15T23:21:58.727Z,212.13
2022-11-15T23:24:28.608Z,215.35
2022-11-15T23:26:59.749Z,214.75
2022-11-15T23:29:30.623Z,214.00
2022-11-15T23:35:01.107Z,220.20
2022-11-15T23:37:32.312Z,220.15
2022-11-15T23:40:03.374Z,224.30
2022-11-15T23:42:33.109Z,226.85
2022-11-15T23:45:02.577Z,241.77
2022-11-15T23:47:31.987Z,237.05
2022-11-15T23:50:02.714Z,242.32
2022-11-15T23:52:32.510Z,267.08
2022-11-15T23:55:02.224Z,246.27
2022-11-15T23:57:31.786Z,246.93
